Time;durP1;ratioP1;P1;durP2;ratioP2;P2;SDS_P1;SDS_P2;PMS_P1;PMS_P2;Temp;Humidity;BMP_temperature;BMP_pressure;BME280_temperature;BME280_humidity;BME280_pressure;Samples;Min_cycle;Max_cycle;Signal;HPM_P1;HPM_P2
2022/05/02 00:00:46;;;;;;;3.97;2.60;;;12.00;99.90;;;;;;5097992;28;20298;-70
2022/05/02 00:03:13;;;;;;;6.20;2.83;;;12.00;99.90;;;;;;5099122;28;20237;-67
2022/05/02 00:05:39;;;;;;;4.37;2.90;;;11.90;99.90;;;;;;5101595;28;20253;-67
2022/05/02 00:08:05;;;;;;;3.90;2.43;;;11.90;99.90;;;;;;5102693;28;20158;-71
2022/05/02 00:10:32;;;;;;;3.20;2.40;;;11.80;99.90;;;;;;5101522;28;20213;-67
2022/05/02 00:12:57;;;;;;;4.40;2.63;;;11.70;99.90;;;;;;5096011;28;20586;-67
2022/05/02 00:15:23;;;;;;;4.33;2.63;;;11.70;99.90;;;;;;5099232;28;20201;-67
2022/05/02 00:17:58;;;;;;;3.37;2.50;;;11.50;99.90;;;;;;5104760;28;20169;-67
2022/05/02 00:20:32;;;;;;;5.97;2.77;;;11.60;99.90;;;;;;5105979;28;20199;-68
2022/05/02 00:23:00;;;;;;;3.07;2.43;;;11.50;99.90;;;;;;5105499;28;20161;-68
2022/05/02 00:25:26;;;;;;;5.60;2.67;;;11.40;99.90;;;;;;5103511;28;20259;-67
2022/05/02 00:27:52;;;;;;;6.07;2.93;;;11.30;99.90;;;;;;5103480;28;20174;-68
2022/05/02 00:30:18;;;;;;;4.87;2.90;;;11.20;99.90;;;;;;5094090;28;20162;-66
2022/05/02 00:32:44;;;;;;;3.90;2.80;;;11.20;99.90;;;;;;5093539;28;20243;-67
2022/05/02 00:35:10;;;;;;;3.20;2.43;;;11.20;99.90;;;;;;5092744;28;20210;-68
2022/05/02 00:37:37;;;;;;;2.83;2.30;;;11.20;99.90;;;;;;5092342;28;20175;-67
2022/05/02 00:40:05;;;;;;;6.17;3.00;;;11.20;99.90;;;;;;5093557;28;20538;-68
2022/05/02 00:42:31;;;;;;;4.10;2.67;;;11.20;99.90;;;;;;5093970;28;20178;-68
2022/05/02 00:44:57;;;;;;;8.40;3.00;;;11.00;99.90;;;;;;5094946;28;20168;-67
2022/05/02 00:47:22;;;;;;;5.90;3.23;;;11.00;99.90;;;;;;5093079;28;20175;-67
2022/05/02 00:49:48;;;;;;;4.23;2.77;;;10.90;99.90;;;;;;5093451;28;20162;-67
2022/05/02 00:52:15;;;;;;;3.03;2.73;;;10.90;99.90;;;;;;5093525;28;20309;-67
2022/05/02 00:54:42;;;;;;;10.57;2.83;;;11.00;99.90;;;;;;5093311;28;20195;-66
2022/05/02 00:57:09;;;;;;;3.23;2.13;;;10.90;99.90;;;;;;5093339;28;20169;-67
2022/05/02 00:59:38;;;;;;;5.77;2.60;;;10.90;99.90;;;;;;5092245;28;20179;-67
2022/05/02 01:02:06;;;;;;;3.77;2.90;;;10.80;99.90;;;;;;5093612;28;20617;-67
2022/05/02 01:04:32;;;;;;;4.57;2.93;;;10.80;99.90;;;;;;5093336;28;20163;-68
2022/05/02 01:07:11;;;;;;;3.27;2.57;;;10.70;99.90;;;;;;5093356;28;20170;-70
2022/05/02 01:09:39;;;;;;;5.50;2.63;;;10.70;99.90;;;;;;5096044;28;20617;-68
2022/05/02 01:12:07;;;;;;;4.40;2.97;;;10.70;99.90;;;;;;5097780;28;20167;-67
2022/05/02 01:14:34;;;;;;;4.43;3.07;;;10.70;99.90;;;;;;5100090;28;20217;-67
2022/05/02 01:17:00;;;;;;;3.63;2.50;;;10.60;99.90;;;;;;5106140;28;20484;-67
2022/05/02 01:19:26;;;;;;;3.73;2.73;;;10.60;99.90;;;;;;5101581;28;20175;-68
2022/05/02 01:21:51;;;;;;;5.30;2.70;;;10.40;99.90;;;;;;5096609;28;20163;-68
2022/05/02 01:24:17;;;;;;;5.00;2.50;;;10.50;99.90;;;;;;5096690;28;20163;-65
2022/05/02 01:26:43;;;;;;;5.40;2.57;;;10.50;99.90;;;;;;5112815;28;20597;-67
2022/05/02 01:29:08;;;;;;;3.10;2.70;;;10.50;99.90;;;;;;5095670;28;20201;-69
2022/05/02 01:31:34;;;;;;;3.73;2.50;;;10.40;99.90;;;;;;5096402;28;20155;-68
2022/05/02 01:34:00;;;;;;;3.43;2.53;;;10.40;99.90;;;;;;5095520;28;20210;-67
2022/05/02 01:36:26;;;;;;;4.33;2.90;;;10.40;99.90;;;;;;5096567;28;20507;-67
2022/05/02 01:38:52;;;;;;;3.60;2.40;;;10.50;99.90;;;;;;5097023;28;20211;-66
2022/05/02 01:41:18;;;;;;;3.00;2.50;;;10.40;99.90;;;;;;5096863;28;20195;-67
2022/05/02 01:43:44;;;;;;;3.67;2.87;;;10.30;99.90;;;;;;5095350;28;20621;-67
2022/05/02 01:46:11;;;;;;;3.20;2.40;;;10.40;99.90;;;;;;5096550;28;20174;-67
2022/05/02 01:48:37;;;;;;;3.17;2.60;;;10.40;99.90;;;;;;5095236;28;20178;-67
2022/05/02 01:51:03;;;;;;;3.60;3.23;;;10.30;99.90;;;;;;5096075;28;20163;-69
2022/05/02 01:53:29;;;;;;;4.40;2.63;;;10.40;99.90;;;;;;5097076;28;20239;-67
2022/05/02 01:55:54;;;;;;;4.90;2.80;;;10.40;99.90;;;;;;5096263;28;20540;-67
2022/05/02 01:58:20;;;;;;;4.87;2.57;;;10.50;99.90;;;;;;5096180;28;20216;-68
2022/05/02 02:00:46;;;;;;;4.73;2.87;;;10.50;99.90;;;;;;5096122;28;20633;-66
2022/05/02 02:03:12;;;;;;;4.00;3.03;;;10.40;99.90;;;;;;5096369;28;20163;-66
2022/05/02 02:05:49;;;;;;;3.47;2.77;;;10.50;99.90;;;;;;5095976;28;20191;-67
2022/05/02 02:08:16;;;;;;;3.87;2.60;;;10.50;99.90;;;;;;5097012;28;20184;-69
2022/05/02 02:10:43;;;;;;;5.23;2.93;;;10.40;99.90;;;;;;5098410;28;20189;-67
2022/05/02 02:13:09;;;;;;;3.93;3.03;;;10.40;99.90;;;;;;5099470;28;20208;-67
2022/05/02 02:15:35;;;;;;;4.27;3.07;;;10.30;99.90;;;;;;5101581;28;20170;-69
2022/05/02 02:18:00;;;;;;;5.97;2.93;;;10.30;99.90;;;;;;5099722;28;20181;-66
2022/05/02 02:20:26;;;;;;;5.53;2.60;;;10.30;99.90;;;;;;5121588;28;20204;-67
2022/05/02 02:22:52;;;;;;;4.10;2.73;;;10.30;99.90;;;;;;5119175;28;20170;-67
2022/05/02 02:25:17;;;;;;;4.47;3.13;;;10.30;99.90;;;;;;5121304;28;20157;-67
2022/05/02 02:27:43;;;;;;;4.70;2.97;;;10.10;99.90;;;;;;5121954;28;20171;-67
2022/05/02 02:30:09;;;;;;;8.47;3.20;;;10.20;99.90;;;;;;5122303;28;20225;-66
2022/05/02 02:32:35;;;;;;;4.47;2.87;;;10.20;99.90;;;;;;5122905;28;20162;-68
2022/05/02 02:35:00;;;;;;;3.30;2.63;;;10.20;99.90;;;;;;5122807;28;20205;-68
2022/05/02 02:37:26;;;;;;;8.80;2.60;;;10.30;99.90;;;;;;5123264;28;20170;-67
2022/05/02 02:39:51;;;;;;;3.20;2.60;;;10.20;99.90;;;;;;5124084;28;20155;-68
2022/05/02 02:42:17;;;;;;;5.67;2.60;;;10.20;99.90;;;;;;5125383;28;20171;-67
2022/05/02 02:44:43;;;;;;;5.90;3.33;;;10.30;99.90;;;;;;5127394;28;20158;-67
2022/05/02 02:47:08;;;;;;;3.83;2.83;;;10.20;99.90;;;;;;5123299;28;20170;-67
2022/05/02 02:49:34;;;;;;;4.33;3.27;;;10.20;99.90;;;;;;5125687;28;20191;-67
2022/05/02 02:51:59;;;;;;;8.23;3.30;;;10.30;99.90;;;;;;5118089;28;20222;-68
2022/05/02 02:54:25;;;;;;;5.10;3.17;;;10.30;99.90;;;;;;5114895;28;20526;-68
2022/05/02 02:56:51;;;;;;;3.97;2.80;;;10.20;99.90;;;;;;5122896;28;20632;-67
2022/05/02 02:59:16;;;;;;;6.20;3.20;;;10.20;99.90;;;;;;5120396;28;20223;-67
2022/05/02 03:01:42;;;;;;;4.67;3.20;;;10.20;99.90;;;;;;5121762;28;20193;-68
2022/05/02 03:06:54;;;;;;;4.60;2.93;;;10.00;99.90;;;;;;5114876;28;20229;-67
2022/05/02 03:09:20;;;;;;;3.20;2.70;;;10.10;99.90;;;;;;5115482;28;20165;-67
2022/05/02 03:11:46;;;;;;;4.30;3.20;;;10.10;99.90;;;;;;5115240;28;20194;-67
2022/05/02 03:14:11;;;;;;;3.90;2.67;;;10.10;99.90;;;;;;5113554;28;20209;-68
2022/05/02 03:16:37;;;;;;;7.33;3.23;;;10.10;99.90;;;;;;5115631;28;20170;-67
2022/05/02 03:19:03;;;;;;;6.07;3.10;;;10.00;99.90;;;;;;5115502;28;20164;-67
2022/05/02 03:21:28;;;;;;;4.23;2.93;;;10.10;99.90;;;;;;5115147;28;20609;-68
2022/05/02 03:23:54;;;;;;;8.20;2.83;;;10.10;99.90;;;;;;5115131;28;20201;-68
2022/05/02 03:26:19;;;;;;;5.33;3.00;;;10.00;99.90;;;;;;5114811;28;20168;-67
2022/05/02 03:28:45;;;;;;;4.23;2.83;;;9.90;99.90;;;;;;5114890;28;20158;-67
2022/05/02 03:31:11;;;;;;;3.27;2.97;;;9.80;99.90;;;;;;5113475;28;20162;-66
2022/05/02 03:33:36;;;;;;;4.30;3.00;;;10.00;99.90;;;;;;5113384;28;20221;-68
2022/05/02 03:36:02;;;;;;;5.17;3.50;;;10.00;99.90;;;;;;5114947;28;20602;-67
2022/05/02 03:38:28;;;;;;;4.30;2.77;;;9.90;99.90;;;;;;5115313;28;20163;-68
2022/05/02 03:40:53;;;;;;;3.50;3.03;;;10.00;99.90;;;;;;5116976;28;20162;-67
2022/05/02 03:43:19;;;;;;;6.13;3.27;;;10.00;99.90;;;;;;5114774;28;20209;-66
2022/05/02 03:45:45;;;;;;;4.53;2.77;;;10.00;99.90;;;;;;5114761;28;20556;-67
2022/05/02 03:48:10;;;;;;;8.50;3.50;;;10.10;99.90;;;;;;5114864;28;20169;-66
2022/05/02 03:50:36;;;;;;;6.40;3.10;;;10.00;99.90;;;;;;5113620;28;20627;-67
2022/05/02 03:53:01;;;;;;;4.43;2.93;;;10.00;99.90;;;;;;5114339;28;20221;-67
2022/05/02 03:55:27;;;;;;;5.90;3.00;;;9.90;99.90;;;;;;5114490;28;20290;-70
2022/05/02 03:57:53;;;;;;;5.97;2.87;;;10.00;99.90;;;;;;5114734;28;20254;-67
2022/05/02 04:00:19;;;;;;;5.27;3.27;;;10.00;99.90;;;;;;5114420;28;20162;-66
2022/05/02 04:02:45;;;;;;;6.30;3.17;;;10.00;99.90;;;;;;5113334;28;20177;-68
2022/05/02 04:05:10;;;;;;;4.47;3.60;;;9.90;99.90;;;;;;5116437;28;20478;-67
2022/05/02 04:07:36;;;;;;;4.17;3.13;;;9.80;99.90;;;;;;5118530;28;20219;-68
2022/05/02 04:10:03;;;;;;;8.77;3.77;;;9.90;99.90;;;;;;5115354;28;20162;-68
2022/05/02 04:12:38;;;;;;;9.97;3.40;;;9.90;99.90;;;;;;5114852;28;20716;-68
2022/05/02 04:15:09;;;;;;;6.87;3.10;;;9.70;99.90;;;;;;5115287;28;20200;-68
2022/05/02 04:17:35;;;;;;;5.90;3.63;;;9.80;99.90;;;;;;5119111;28;20162;-67
2022/05/02 04:20:02;;;;;;;6.27;3.60;;;9.70;99.90;;;;;;5121694;28;20249;-67
2022/05/02 04:22:28;;;;;;;4.13;3.33;;;9.80;99.90;;;;;;5118496;28;20159;-67
2022/05/02 04:24:53;;;;;;;4.40;3.20;;;9.80;99.90;;;;;;5114416;28;20170;-68
2022/05/02 04:27:19;;;;;;;8.07;3.93;;;10.00;99.90;;;;;;5113270;28;20210;-67
2022/05/02 04:29:45;;;;;;;6.67;4.00;;;10.00;99.90;;;;;;5114232;28;20166;-68
2022/05/02 04:32:10;;;;;;;7.40;4.00;;;9.80;99.90;;;;;;5113220;28;20586;-67
2022/05/02 04:34:36;;;;;;;9.13;4.20;;;9.70;99.90;;;;;;5113454;28;20614;-68
2022/05/02 04:37:01;;;;;;;6.67;4.50;;;9.80;99.90;;;;;;5113225;28;20193;-68
2022/05/02 04:39:27;;;;;;;7.77;5.03;;;10.00;99.90;;;;;;5113803;28;20170;-68
2022/05/02 04:41:53;;;;;;;11.23;5.73;;;10.20;99.90;;;;;;5114175;28;20245;-67
2022/05/02 04:44:18;;;;;;;9.37;5.77;;;10.20;99.90;;;;;;5118292;28;20173;-67
2022/05/02 04:46:44;;;;;;;8.23;4.37;;;10.20;99.90;;;;;;5117777;28;20610;-68
2022/05/02 04:49:09;;;;;;;7.33;4.63;;;10.20;99.90;;;;;;5117626;28;20189;-68
2022/05/02 04:51:35;;;;;;;5.17;4.00;;;10.10;99.90;;;;;;5117550;28;20276;-67
2022/05/02 04:54:01;;;;;;;10.80;4.83;;;10.10;99.90;;;;;;5118196;28;20578;-68
2022/05/02 04:56:26;;;;;;;6.13;4.37;;;10.30;99.90;;;;;;5116842;28;20173;-68
2022/05/02 04:58:52;;;;;;;9.83;4.87;;;10.40;99.90;;;;;;5118266;28;20589;-67
2022/05/02 05:01:17;;;;;;;8.13;4.50;;;10.40;99.90;;;;;;5117666;28;20181;-67
2022/05/02 05:03:43;;;;;;;9.53;4.60;;;10.40;99.90;;;;;;5122415;28;20551;-68
2022/05/02 05:06:09;;;;;;;7.30;4.27;;;10.40;99.90;;;;;;5127250;28;20252;-67
2022/05/02 05:08:35;;;;;;;13.07;5.37;;;10.30;99.90;;;;;;5125441;28;20230;-67
2022/05/02 05:11:09;;;;;;;11.73;4.90;;;10.30;99.90;;;;;;5123563;28;20178;-67
2022/05/02 05:13:44;;;;;;;19.73;6.17;;;10.30;99.90;;;;;;5122068;28;20212;-67
2022/05/02 05:16:41;;;;;;;12.37;6.57;;;10.40;99.90;;;;;;5124159;28;20154;-67
2022/05/02 05:19:10;;;;;;;11.90;6.43;;;10.50;99.90;;;;;;5123698;28;20269;-69
2022/05/02 05:22:17;;;;;;;10.93;5.73;;;10.50;99.90;;;;;;5120611;28;20223;-73
2022/05/02 05:25:06;;;;;;;11.13;5.47;;;10.50;99.90;;;;;;5120455;28;20220;-70
2022/05/02 05:27:45;;;;;;;15.03;5.40;;;10.70;99.90;;;;;;5121679;28;20162;-67
2022/05/02 05:30:11;;;;;;;11.23;5.47;;;10.70;99.90;;;;;;5121651;28;20162;-68
2022/05/02 05:32:46;;;;;;;11.60;4.70;;;11.10;99.90;;;;;;5120136;28;20195;-69
2022/05/02 05:35:22;;;;;;;7.87;4.90;;;11.10;99.90;;;;;;5122931;28;20202;-67
2022/05/02 05:37:57;;;;;;;8.90;5.03;;;11.00;99.90;;;;;;5118272;28;20609;-66
2022/05/02 05:40:30;;;;;;;8.07;3.97;;;11.10;99.90;;;;;;5116364;28;20159;-68
2022/05/02 05:43:31;;;;;;;6.67;4.77;;;11.10;99.90;;;;;;5111916;27;20261;-68
2022/05/02 05:46:26;;;;;;;7.50;4.47;;;11.10;99.90;;;;;;5116549;28;20168;-68
2022/05/02 05:49:36;;;;;;;13.53;4.03;;;11.20;99.90;;;;;;5116306;28;20200;-68
2022/05/02 05:52:42;;;;;;;6.33;4.20;;;11.10;99.90;;;;;;5084681;28;20528;-67
2022/05/02 05:55:36;;;;;;;8.47;4.17;;;11.10;99.90;;;;;;5032173;28;20227;-67
2022/05/02 05:58:33;;;;;;;8.57;4.03;;;11.20;99.90;;;;;;5033553;28;20175;-67
2022/05/02 06:01:10;;;;;;;4.87;3.77;;;11.40;99.90;;;;;;5102582;28;20535;-67
2022/05/02 06:03:55;;;;;;;5.37;3.70;;;11.40;99.90;;;;;;5115357;28;20173;-67
2022/05/02 06:06:22;;;;;;;7.60;4.33;;;11.50;99.90;;;;;;5116282;28;20492;-67
2022/05/02 06:08:52;;;;;;;6.70;3.77;;;11.50;99.90;;;;;;5116347;28;20187;-66
2022/05/02 06:11:19;;;;;;;9.20;4.07;;;11.70;99.90;;;;;;5115841;28;20164;-68
2022/05/02 06:13:47;;;;;;;7.60;3.90;;;11.70;99.90;;;;;;5115691;28;20198;-67
2022/05/02 06:19:01;;;;;;;8.80;4.43;;;12.00;99.90;;;;;;5115590;28;20275;-67
2022/05/02 06:21:27;;;;;;;9.17;4.40;;;12.00;99.90;;;;;;5116191;28;20166;-70
2022/05/02 06:23:53;;;;;;;5.30;3.93;;;12.00;99.90;;;;;;5115980;28;20565;-68
2022/05/02 06:26:22;;;;;;;6.93;3.80;;;12.10;99.90;;;;;;5116036;28;20615;-67
2022/05/02 06:28:50;;;;;;;5.80;4.23;;;12.30;99.90;;;;;;5114996;28;20227;-66
2022/05/02 06:31:26;;;;;;;7.43;4.30;;;12.40;99.90;;;;;;5116104;28;20158;-66
2022/05/02 06:33:52;;;;;;;7.13;4.30;;;12.60;99.90;;;;;;5115689;27;20209;-68
2022/05/02 06:36:17;;;;;;;7.50;4.03;;;12.60;99.90;;;;;;5115454;28;20159;-66
2022/05/02 06:39:05;;;;;;;7.30;4.40;;;12.60;99.90;;;;;;5115713;28;20556;-67
2022/05/02 06:42:09;;;;;;;6.57;4.47;;;12.60;99.90;;;;;;5115096;28;20253;-67
2022/05/02 06:44:46;;;;;;;7.97;4.40;;;12.70;99.90;;;;;;5115738;28;20165;-68
2022/05/02 06:47:34;;;;;;;5.57;3.87;;;13.00;99.90;;;;;;5115475;28;20158;-67
2022/05/02 06:50:04;;;;;;;6.57;3.93;;;13.10;99.90;;;;;;5115628;28;20205;-67
2022/05/02 06:52:39;;;;;;;7.20;4.40;;;13.20;99.90;;;;;;5116241;28;20687;-67
2022/05/02 06:55:30;;;;;;;7.43;3.90;;;13.10;99.90;;;;;;5118260;28;20194;-66
2022/05/02 06:58:33;;;;;;;7.20;4.27;;;13.30;99.90;;;;;;5114780;28;20174;-67
2022/05/02 07:01:19;;;;;;;9.93;4.90;;;13.20;99.90;;;;;;5084902;28;20216;-68
2022/05/02 07:04:15;;;;;;;5.60;3.97;;;13.50;99.90;;;;;;5115233;28;20166;-67
2022/05/02 07:07:01;;;;;;;6.80;4.73;;;13.40;99.90;;;;;;5115298;28;20207;-67
2022/05/02 07:09:50;;;;;;;6.57;4.00;;;13.50;99.90;;;;;;5116848;28;20168;-67
2022/05/02 07:12:21;;;;;;;8.30;4.43;;;13.50;99.90;;;;;;5126865;28;20194;-69
2022/05/02 07:15:17;;;;;;;8.57;4.57;;;13.60;99.90;;;;;;5119011;28;20574;-66
2022/05/02 07:17:42;;;;;;;9.47;4.30;;;13.60;99.90;;;;;;5114688;28;20186;-69
2022/05/02 07:20:54;;;;;;;9.23;4.60;;;13.70;99.90;;;;;;5115501;28;20190;-68
2022/05/02 07:23:35;;;;;;;6.33;4.37;;;13.70;99.90;;;;;;5052527;28;20656;-67
2022/05/02 07:26:08;;;;;;;7.03;4.00;;;14.10;99.90;;;;;;5114129;28;20184;-66
2022/05/02 07:28:51;;;;;;;6.13;4.23;;;14.20;99.90;;;;;;5114775;28;20569;-68
2022/05/02 07:31:24;;;;;;;10.97;4.83;;;14.40;99.90;;;;;;5114695;28;20245;-67
2022/05/02 07:33:51;;;;;;;8.13;5.13;;;14.70;99.90;;;;;;5114446;28;20204;-67
2022/05/02 07:36:19;;;;;;;6.87;4.33;;;14.20;99.90;;;;;;5114996;28;20155;-66
2022/05/02 07:38:52;;;;;;;7.27;4.47;;;14.60;99.90;;;;;;5116103;28;20162;-66
2022/05/02 07:41:24;;;;;;;7.80;4.27;;;14.50;99.90;;;;;;5115925;28;20186;-66
2022/05/02 07:43:56;;;;;;;5.97;3.80;;;14.90;99.90;;;;;;5115537;28;20166;-68
2022/05/02 07:46:51;;;;;;;5.83;4.30;;;14.70;99.90;;;;;;5117335;28;20182;-67
2022/05/02 07:49:28;;;;;;;5.13;4.23;;;15.00;99.90;;;;;;5115768;28;20190;-68
2022/05/02 07:51:57;;;;;;;9.70;4.00;;;15.00;99.90;;;;;;5120762;28;20229;-70
2022/05/02 07:54:25;;;;;;;6.00;4.07;;;15.10;99.90;;;;;;5114164;28;20198;-68
2022/05/02 07:57:04;;;;;;;9.20;4.67;;;15.20;99.90;;;;;;5114389;28;20257;-69
2022/05/02 07:59:35;;;;;;;7.53;4.70;;;15.30;99.90;;;;;;5114655;28;20177;-68
2022/05/02 08:02:00;;;;;;;5.23;3.93;;;15.30;99.90;;;;;;5113974;28;20154;-68
2022/05/02 08:04:27;;;;;;;6.17;3.90;;;15.80;99.90;;;;;;5114365;28;20227;-70
2022/05/02 08:07:24;;;;;;;6.13;4.37;;;15.90;98.20;;;;;;5113891;28;20173;-69
2022/05/02 08:10:10;;;;;;;6.27;4.40;;;15.70;98.60;;;;;;5096395;28;20629;-69
2022/05/02 08:12:54;;;;;;;8.43;4.13;;;15.80;98.30;;;;;;5114156;28;20178;-67
2022/05/02 08:15:25;;;;;;;7.67;4.50;;;16.00;98.60;;;;;;5116481;28;20197;-66
2022/05/02 08:17:58;;;;;;;4.87;4.00;;;16.10;97.20;;;;;;5115345;28;20680;-66
2022/05/02 08:20:46;;;;;;;6.47;4.57;;;16.30;96.50;;;;;;5118855;28;20166;-67
2022/05/02 08:29:23;;;;;;;7.65;4.32;;;16.40;95.40;;;;;;5124984;28;20628;-68
2022/05/02 08:31:58;;;;;;;9.57;5.10;;;16.40;94.70;;;;;;5122808;28;20262;-67
2022/05/02 08:34:39;;;;;;;6.35;4.28;;;16.60;93.40;;;;;;5101488;28;20210;-68
2022/05/02 08:37:19;;;;;;;6.80;4.35;;;17.10;93.30;;;;;;5104101;28;20163;-67
2022/05/02 08:39:57;;;;;;;8.13;4.90;;;17.20;92.50;;;;;;5100644;28;20178;-68
2022/05/02 08:42:47;;;;;;;6.20;3.72;;;17.40;92.60;;;;;;5097583;28;20163;-67
2022/05/02 08:45:49;;;;;;;9.45;4.18;;;17.50;90.70;;;;;;5096463;28;20178;-66
2022/05/02 08:48:36;;;;;;;8.50;4.03;;;17.50;89.50;;;;;;5092978;28;20183;-68
2022/05/02 08:51:23;;;;;;;8.07;3.85;;;17.80;86.10;;;;;;5097197;28;20603;-68
2022/05/02 08:54:19;;;;;;;8.23;4.65;;;18.10;78.50;;;;;;5097373;28;20586;-67
2022/05/02 08:57:14;;;;;;;6.63;4.18;;;18.50;76.10;;;;;;5094565;28;20169;-66
2022/05/02 08:59:57;;;;;;;6.93;4.80;;;18.60;72.80;;;;;;5080752;28;20190;-66
2022/05/02 09:02:41;;;;;;;7.25;4.63;;;18.40;71.10;;;;;;5095410;28;20166;-70
2022/05/02 09:05:33;;;;;;;4.95;3.65;;;18.50;72.00;;;;;;5095237;28;20173;-68
2022/05/02 09:08:36;;;;;;;6.60;3.70;;;18.80;70.70;;;;;;5095030;28;20203;-67
2022/05/02 09:11:12;;;;;;;5.00;3.30;;;18.70;67.40;;;;;;5094582;28;20164;-68
2022/05/02 09:13:41;;;;;;;7.63;3.67;;;18.80;66.60;;;;;;5094855;28;20159;-68
2022/05/02 09:16:35;;;;;;;7.38;3.50;;;18.80;66.70;;;;;;5094650;28;20166;-68
2022/05/02 09:19:19;;;;;;;4.20;3.40;;;19.00;65.90;;;;;;5094195;28;20171;-68
2022/05/02 09:22:12;;;;;;;12.65;3.92;;;19.10;64.90;;;;;;5092785;28;20178;-67
2022/05/02 09:25:10;;;;;;;8.20;3.35;;;19.30;63.40;;;;;;5093344;28;20163;-69
2022/05/02 09:27:54;;;;;;;4.95;3.50;;;19.50;62.30;;;;;;5081078;28;20183;-67
2022/05/02 09:30:39;;;;;;;5.03;3.67;;;19.30;60.00;;;;;;5096148;28;20481;-67
2022/05/02 09:33:36;;;;;;;6.28;3.08;;;19.60;60.60;;;;;;5097274;28;20159;-67
2022/05/02 09:36:12;;;;;;;5.75;4.15;;;19.60;59.80;;;;;;5096536;28;20253;-71
2022/05/02 09:38:47;;;;;;;6.15;3.50;;;19.70;59.60;;;;;;5097015;28;20162;-67
2022/05/02 09:41:36;;;;;;;5.90;3.40;;;19.70;58.70;;;;;;5096508;28;20598;-69
2022/05/02 09:50:42;;;;;;;4.95;3.35;;;19.70;58.90;;;;;;5097549;28;20273;-68
2022/05/02 09:53:14;;;;;;;6.53;3.47;;;19.70;58.00;;;;;;5098308;28;20244;-69
2022/05/02 09:58:54;;;;;;;11.63;3.78;;;20.00;57.40;;;;;;5099284;28;20252;-68
2022/05/02 10:01:27;;;;;;;12.43;4.57;;;20.00;57.40;;;;;;5100087;28;20154;-69
2022/05/02 10:04:18;;;;;;;4.85;3.90;;;20.50;55.40;;;;;;5098842;28;20169;-69
2022/05/02 10:06:52;;;;;;;4.38;3.50;;;20.50;54.00;;;;;;5097577;28;20154;-73
2022/05/02 10:09:28;;;;;;;10.32;4.07;;;20.70;55.20;;;;;;5097911;28;20207;-75
2022/05/02 10:12:12;;;;;;;20.58;4.63;;;20.50;54.60;;;;;;5099723;28;20170;-75
2022/05/02 10:14:38;;;;;;;7.85;4.40;;;20.30;56.00;;;;;;5097362;28;20297;-75
2022/05/02 10:17:11;;;;;;;5.97;3.90;;;20.00;54.50;;;;;;5096581;28;20249;-72
2022/05/02 10:19:46;;;;;;;7.20;5.70;;;20.40;55.30;;;;;;5095380;28;20155;-70
2022/05/02 10:22:40;;;;;;;8.60;4.18;;;20.50;54.20;;;;;;5095513;28;20175;-68
2022/05/02 10:25:13;;;;;;;6.30;4.50;;;20.60;54.00;;;;;;5093973;28;20200;-67
2022/05/02 10:28:12;;;;;;;5.18;4.13;;;20.80;52.60;;;;;;5095176;28;20583;-70
2022/05/02 10:31:05;;;;;;;6.53;3.88;;;20.70;52.60;;;;;;5095506;28;20611;-68
2022/05/02 10:33:35;;;;;;;4.70;3.80;;;20.60;53.70;;;;;;5095712;28;20253;-68
2022/05/02 10:36:04;;;;;;;6.63;4.53;;;20.70;53.60;;;;;;5094990;28;20183;-68
2022/05/02 10:38:30;;;;;;;7.13;4.03;;;20.70;54.10;;;;;;5094051;28;20535;-69
2022/05/02 10:41:11;;;;;;;6.93;4.40;;;20.70;54.80;;;;;;5095524;28;20154;-67
2022/05/02 10:43:41;;;;;;;7.43;4.57;;;20.60;53.40;;;;;;5093943;28;20175;-68
2022/05/02 10:46:12;;;;;;;11.60;4.05;;;20.90;52.80;;;;;;5095490;28;20258;-68
2022/05/02 10:48:49;;;;;;;7.68;4.25;;;20.80;52.80;;;;;;5093806;28;20494;-69
2022/05/02 10:51:35;;;;;;;5.72;4.10;;;20.50;52.80;;;;;;5093610;28;20603;-69
2022/05/02 10:54:08;;;;;;;6.80;3.92;;;20.80;53.50;;;;;;5095404;28;20365;-67
2022/05/02 10:56:53;;;;;;;7.88;5.63;;;20.70;53.40;;;;;;5095328;28;20167;-68
2022/05/02 10:59:23;;;;;;;10.82;4.80;;;20.90;54.10;;;;;;5095023;28;20213;-67
2022/05/02 11:02:16;;;;;;;8.70;4.93;;;20.90;52.80;;;;;;5095515;28;20212;-66
2022/05/02 11:04:54;;;;;;;10.20;4.65;;;21.30;52.80;;;;;;5095243;28;20167;-70
2022/05/02 11:07:37;;;;;;;6.15;4.25;;;21.00;52.00;;;;;;5098910;28;20558;-65
2022/05/02 11:10:09;;;;;;;8.13;4.00;;;21.10;52.70;;;;;;5096873;28;20165;-66
2022/05/02 11:12:47;;;;;;;5.60;4.13;;;21.40;52.40;;;;;;5095884;28;20158;-66
2022/05/02 11:15:35;;;;;;;6.82;4.43;;;21.50;52.30;;;;;;5096581;28;20199;-67
2022/05/02 11:21:58;;;;;;;9.02;5.15;;;21.30;51.40;;;;;;5075255;28;20193;-66
2022/05/02 11:24:42;;;;;;;5.47;4.72;;;21.00;52.00;;;;;;5102576;28;20246;-67
2022/05/02 11:27:29;;;;;;;5.82;3.92;;;20.90;50.90;;;;;;5098545;28;20242;-66
2022/05/02 11:30:01;;;;;;;5.75;4.30;;;21.40;52.60;;;;;;5101851;28;20169;-66
2022/05/02 11:32:52;;;;;;;8.98;4.90;;;21.40;51.60;;;;;;5102355;28;20186;-66
2022/05/02 11:35:24;;;;;;;22.48;5.50;;;21.40;52.00;;;;;;5101158;28;20195;-67
2022/05/02 11:38:02;;;;;;;7.32;4.40;;;21.60;51.80;;;;;;5101413;28;20312;-66
2022/05/02 11:40:33;;;;;;;6.05;4.50;;;21.70;51.50;;;;;;5101395;28;20155;-67
2022/05/02 11:42:59;;;;;;;8.77;6.45;;;21.50;50.70;;;;;;5103528;28;20151;-73
2022/05/02 11:45:40;;;;;;;7.97;4.85;;;21.60;51.30;;;;;;5102128;28;20166;-75
2022/05/02 11:48:21;;;;;;;9.70;5.30;;;21.40;53.80;;;;;;5102212;28;20190;-78
2022/05/02 11:50:48;;;;;;;5.88;4.40;;;21.70;51.30;;;;;;5102199;28;20155;-76
2022/05/02 11:53:16;;;;;;;8.00;6.13;;;21.80;51.70;;;;;;5103125;28;20335;-75
2022/05/02 11:55:45;;;;;;;8.60;5.93;;;22.10;51.00;;;;;;5102886;28;20653;-78
2022/05/02 11:58:25;;;;;;;6.38;4.70;;;22.20;50.80;;;;;;5103598;28;20614;-76
2022/05/02 12:01:08;;;;;;;7.43;4.55;;;21.90;51.20;;;;;;5102944;28;20220;-66
2022/05/02 12:04:00;;;;;;;9.85;4.60;;;21.90;51.80;;;;;;5093071;28;20181;-67
2022/05/02 12:06:44;;;;;;;8.30;4.78;;;22.00;51.40;;;;;;5093527;28;20155;-66
2022/05/02 12:09:23;;;;;;;5.53;4.10;;;22.10;51.40;;;;;;5093714;28;20167;-65
2022/05/02 12:11:54;;;;;;;9.18;4.60;;;21.80;50.80;;;;;;5093754;28;20231;-67
2022/05/02 12:14:21;;;;;;;7.57;4.63;;;22.00;51.30;;;;;;5092353;28;20673;-66
2022/05/02 12:17:09;;;;;;;5.55;3.97;;;22.10;50.80;;;;;;5093219;28;20170;-66
2022/05/02 12:19:36;;;;;;;5.95;4.18;;;22.00;50.70;;;;;;5092212;28;20178;-65
2022/05/02 12:22:05;;;;;;;6.20;4.70;;;21.80;50.80;;;;;;5093183;28;20159;-66
2022/05/02 12:24:33;;;;;;;7.00;4.85;;;21.60;51.90;;;;;;5092898;28;20166;-66
2022/05/02 12:27:00;;;;;;;10.30;5.05;;;21.00;52.40;;;;;;5093221;28;20174;-66
2022/05/02 12:29:27;;;;;;;6.45;4.80;;;20.90;53.00;;;;;;5094347;28;20159;-65
2022/05/02 12:31:59;;;;;;;6.03;4.70;;;21.00;53.50;;;;;;5098781;28;20216;-66
2022/05/02 12:34:42;;;;;;;4.90;3.92;;;21.10;53.30;;;;;;5092292;28;20203;-66
2022/05/02 12:37:33;;;;;;;4.97;4.28;;;21.00;52.90;;;;;;5093712;28;20166;-67
2022/05/02 12:40:08;;;;;;;4.30;3.90;;;21.00;54.20;;;;;;5095263;28;20159;-66
2022/05/02 12:42:40;;;;;;;5.85;3.90;;;21.20;54.70;;;;;;5094830;28;20674;-67
2022/05/02 12:45:11;;;;;;;4.40;3.72;;;21.40;54.80;;;;;;5093015;28;20242;-67
2022/05/02 12:47:56;;;;;;;11.25;4.57;;;22.00;53.20;;;;;;5093102;28;20151;-66
2022/05/02 12:50:28;;;;;;;5.32;4.10;;;21.80;51.70;;;;;;5092850;28;20488;-67
2022/05/02 12:52:56;;;;;;;6.93;4.10;;;21.70;51.70;;;;;;5093224;28;20235;-66
2022/05/02 12:55:29;;;;;;;5.47;4.05;;;21.80;51.30;;;;;;5092911;28;20207;-66
2022/05/02 13:00:45;;;;;;;7.55;4.25;;;22.30;52.50;;;;;;5092890;28;20158;-65
2022/05/02 13:03:11;;;;;;;6.47;4.13;;;21.70;52.20;;;;;;5095630;28;20159;-65
2022/05/02 13:05:41;;;;;;;5.45;4.00;;;21.30;53.40;;;;;;5099096;28;20177;-66
2022/05/02 13:08:09;;;;;;;6.93;4.15;;;21.40;54.00;;;;;;5096774;28;20257;-67
2022/05/02 13:10:35;;;;;;;8.50;4.38;;;21.30;53.40;;;;;;5096446;28;20169;-65
2022/05/02 13:13:06;;;;;;;9.10;4.28;;;21.00;54.10;;;;;;5096569;28;20253;-67
2022/05/02 13:15:43;;;;;;;6.60;4.03;;;21.10;54.10;;;;;;5096801;28;20191;-66
2022/05/02 13:18:20;;;;;;;6.20;3.97;;;21.00;53.80;;;;;;5096472;28;20178;-65
2022/05/02 13:21:11;;;;;;;9.23;4.07;;;21.00;54.40;;;;;;5096782;28;20159;-67
2022/05/02 13:23:41;;;;;;;5.82;4.03;;;21.00;54.80;;;;;;5083743;28;20580;-66
2022/05/02 13:26:22;;;;;;;7.22;4.32;;;20.90;54.70;;;;;;5096965;28;20185;-66
2022/05/02 13:29:13;;;;;;;6.72;3.85;;;21.10;55.10;;;;;;5096854;28;20155;-65
2022/05/02 13:31:45;;;;;;;5.20;3.92;;;21.00;53.80;;;;;;5096500;28;20174;-66
2022/05/02 13:34:56;;;;;;;5.90;4.10;;;21.00;54.20;;;;;;5096708;28;20270;-67
2022/05/02 13:37:45;;;;;;;5.78;4.22;;;21.50;54.50;;;;;;5033842;28;20652;-67
2022/05/02 13:40:13;;;;;;;4.85;3.70;;;21.80;53.40;;;;;;5096659;28;20213;-66
2022/05/02 13:43:04;;;;;;;7.30;4.32;;;21.60;52.90;;;;;;5096497;28;20167;-66
2022/05/02 13:45:43;;;;;;;5.05;4.10;;;21.70;53.60;;;;;;5096704;28;20178;-66
2022/05/02 14:09:44;;;;;;;6.38;4.28;;;20.80;54.40;;;;;;5111546;28;20170;-65